sensor_id;sensor_type;location;lat;lon;timestamp;P1;durP1;ratioP1;P2;durP2;ratioP2
6519;SDS011;3293;51.690;5.982;2023-09-19T00:03:28;10.57;;;4.00;;
6519;SDS011;3293;51.690;5.982;2023-09-19T00:08:28;9.87;;;3.80;;
6519;SDS011;3293;51.690;5.982;2023-09-19T00:13:28;14.73;;;3.83;;
6519;SDS011;3293;51.690;5.982;2023-09-19T00:18:28;15.43;;;3.50;;
6519;SDS011;3293;51.690;5.982;2023-09-19T00:23:31;12.43;;;3.83;;
6519;SDS011;3293;51.690;5.982;2023-09-19T00:28:32;15.60;;;3.37;;
6519;SDS011;3293;51.690;5.982;2023-09-19T00:33:33;8.83;;;3.50;;
6519;SDS011;3293;51.690;5.982;2023-09-19T00:38:33;12.00;;;3.40;;
6519;SDS011;3293;51.690;5.982;2023-09-19T00:43:33;9.83;;;3.07;;
6519;SDS011;3293;51.690;5.982;2023-09-19T00:48:38;11.67;;;3.60;;
6519;SDS011;3293;51.690;5.982;2023-09-19T00:53:43;11.17;;;3.60;;
6519;SDS011;3293;51.690;5.982;2023-09-19T00:58:45;9.13;;;3.53;;
6519;SDS011;3293;51.690;5.982;2023-09-19T01:03:46;12.90;;;3.60;;
6519;SDS011;3293;51.690;5.982;2023-09-19T01:08:46;12.73;;;3.57;;
6519;SDS011;3293;51.690;5.982;2023-09-19T01:13:48;8.93;;;3.47;;
6519;SDS011;3293;51.690;5.982;2023-09-19T01:18:52;16.37;;;4.30;;
6519;SDS011;3293;51.690;5.982;2023-09-19T01:29:33;13.43;;;3.60;;
6519;SDS011;3293;51.690;5.982;2023-09-19T01:34:48;18.63;;;4.07;;
6519;SDS011;3293;51.690;5.982;2023-09-19T01:39:52;9.47;;;3.10;;
6519;SDS011;3293;51.690;5.982;2023-09-19T01:45:10;11.40;;;3.77;;
6519;SDS011;3293;51.690;5.982;2023-09-19T01:55:17;15.00;;;3.53;;
6519;SDS011;3293;51.690;5.982;2023-09-19T02:00:18;9.20;;;3.90;;
6519;SDS011;3293;51.690;5.982;2023-09-19T02:05:22;10.77;;;3.60;;
6519;SDS011;3293;51.690;5.982;2023-09-19T02:10:23;7.17;;;2.80;;
6519;SDS011;3293;51.690;5.982;2023-09-19T02:15:23;11.40;;;3.60;;
6519;SDS011;3293;51.690;5.982;2023-09-19T02:20:24;10.20;;;3.73;;
6519;SDS011;3293;51.690;5.982;2023-09-19T02:25:25;8.47;;;3.63;;
6519;SDS011;3293;51.690;5.982;2023-09-19T02:30:27;7.33;;;3.10;;
6519;SDS011;3293;51.690;5.982;2023-09-19T02:35:27;9.87;;;3.00;;
6519;SDS011;3293;51.690;5.982;2023-09-19T02:40:28;11.20;;;3.40;;
6519;SDS011;3293;51.690;5.982;2023-09-19T02:45:28;8.77;;;3.33;;
6519;SDS011;3293;51.690;5.982;2023-09-19T02:50:29;13.70;;;4.27;;
6519;SDS011;3293;51.690;5.982;2023-09-19T02:55:29;13.07;;;3.80;;
6519;SDS011;3293;51.690;5.982;2023-09-19T03:00:29;11.63;;;3.17;;
6519;SDS011;3293;51.690;5.982;2023-09-19T03:05:29;12.50;;;3.03;;
6519;SDS011;3293;51.690;5.982;2023-09-19T03:10:32;7.27;;;3.13;;
6519;SDS011;3293;51.690;5.982;2023-09-19T03:15:32;14.30;;;3.30;;
6519;SDS011;3293;51.690;5.982;2023-09-19T03:20:32;11.60;;;3.00;;
6519;SDS011;3293;51.690;5.982;2023-09-19T03:25:33;8.40;;;3.10;;
6519;SDS011;3293;51.690;5.982;2023-09-19T03:30:35;10.10;;;3.30;;
6519;SDS011;3293;51.690;5.982;2023-09-19T03:35:35;13.70;;;2.93;;
6519;SDS011;3293;51.690;5.982;2023-09-19T03:40:36;6.47;;;3.00;;
6519;SDS011;3293;51.690;5.982;2023-09-19T03:45:37;9.77;;;4.17;;
6519;SDS011;3293;51.690;5.982;2023-09-19T03:50:38;8.03;;;2.97;;
6519;SDS011;3293;51.690;5.982;2023-09-19T03:55:38;8.23;;;3.30;;
6519;SDS011;3293;51.690;5.982;2023-09-19T04:00:38;11.03;;;3.23;;
6519;SDS011;3293;51.690;5.982;2023-09-19T04:05:38;9.73;;;3.33;;
6519;SDS011;3293;51.690;5.982;2023-09-19T04:10:38;9.87;;;2.90;;
6519;SDS011;3293;51.690;5.982;2023-09-19T04:15:38;9.20;;;3.17;;
6519;SDS011;3293;51.690;5.982;2023-09-19T04:20:39;13.93;;;3.37;;
6519;SDS011;3293;51.690;5.982;2023-09-19T04:25:40;9.20;;;2.63;;
6519;SDS011;3293;51.690;5.982;2023-09-19T04:30:40;9.33;;;3.07;;
6519;SDS011;3293;51.690;5.982;2023-09-19T04:35:42;6.67;;;3.20;;
6519;SDS011;3293;51.690;5.982;2023-09-19T04:40:42;10.13;;;4.27;;
6519;SDS011;3293;51.690;5.982;2023-09-19T04:45:41;9.60;;;3.50;;
6519;SDS011;3293;51.690;5.982;2023-09-19T04:50:41;6.07;;;2.77;;
6519;SDS011;3293;51.690;5.982;2023-09-19T04:55:42;6.23;;;3.20;;
6519;SDS011;3293;51.690;5.982;2023-09-19T05:00:42;11.57;;;3.07;;
6519;SDS011;3293;51.690;5.982;2023-09-19T05:05:42;10.73;;;3.10;;
6519;SDS011;3293;51.690;5.982;2023-09-19T05:10:42;8.33;;;3.50;;
6519;SDS011;3293;51.690;5.982;2023-09-19T05:15:43;7.77;;;3.57;;
6519;SDS011;3293;51.690;5.982;2023-09-19T05:20:43;10.50;;;3.57;;
6519;SDS011;3293;51.690;5.982;2023-09-19T05:25:43;9.50;;;3.00;;
6519;SDS011;3293;51.690;5.982;2023-09-19T05:30:43;7.00;;;2.93;;
6519;SDS011;3293;51.690;5.982;2023-09-19T05:35:44;9.17;;;2.90;;
6519;SDS011;3293;51.690;5.982;2023-09-19T05:40:46;9.40;;;3.30;;
6519;SDS011;3293;51.690;5.982;2023-09-19T05:45:46;10.90;;;3.53;;
6519;SDS011;3293;51.690;5.982;2023-09-19T05:50:48;14.13;;;3.40;;
6519;SDS011;3293;51.690;5.982;2023-09-19T05:55:49;9.77;;;3.27;;
6519;SDS011;3293;51.690;5.982;2023-09-19T06:00:49;7.97;;;2.87;;
6519;SDS011;3293;51.690;5.982;2023-09-19T06:05:49;12.20;;;3.70;;
6519;SDS011;3293;51.690;5.982;2023-09-19T06:10:50;12.23;;;3.07;;
6519;SDS011;3293;51.690;5.982;2023-09-19T06:15:51;10.23;;;3.13;;
6519;SDS011;3293;51.690;5.982;2023-09-19T06:20:51;9.57;;;3.13;;
6519;SDS011;3293;51.690;5.982;2023-09-19T06:25:51;11.43;;;3.40;;
6519;SDS011;3293;51.690;5.982;2023-09-19T06:30:54;10.70;;;3.37;;
6519;SDS011;3293;51.690;5.982;2023-09-19T06:35:55;14.60;;;3.77;;
6519;SDS011;3293;51.690;5.982;2023-09-19T06:41:13;12.30;;;3.57;;
6519;SDS011;3293;51.690;5.982;2023-09-19T06:46:15;10.97;;;3.20;;
6519;SDS011;3293;51.690;5.982;2023-09-19T06:51:16;16.53;;;3.53;;
6519;SDS011;3293;51.690;5.982;2023-09-19T06:56:16;15.57;;;4.20;;
6519;SDS011;3293;51.690;5.982;2023-09-19T07:01:16;9.47;;;3.13;;
6519;SDS011;3293;51.690;5.982;2023-09-19T07:06:17;10.40;;;3.47;;
6519;SDS011;3293;51.690;5.982;2023-09-19T07:11:17;11.77;;;3.57;;
6519;SDS011;3293;51.690;5.982;2023-09-19T07:16:17;11.77;;;3.37;;
6519;SDS011;3293;51.690;5.982;2023-09-19T07:21:27;10.03;;;3.03;;
6519;SDS011;3293;51.690;5.982;2023-09-19T07:26:27;11.00;;;3.90;;
6519;SDS011;3293;51.690;5.982;2023-09-19T07:31:29;9.00;;;3.17;;
6519;SDS011;3293;51.690;5.982;2023-09-19T07:36:30;10.57;;;3.60;;
6519;SDS011;3293;51.690;5.982;2023-09-19T07:41:30;11.37;;;3.43;;
6519;SDS011;3293;51.690;5.982;2023-09-19T07:46:30;11.93;;;3.93;;
6519;SDS011;3293;51.690;5.982;2023-09-19T07:51:30;12.80;;;3.92;;
6519;SDS011;3293;51.690;5.982;2023-09-19T07:56:31;11.02;;;3.28;;
6519;SDS011;3293;51.690;5.982;2023-09-19T08:01:31;11.70;;;3.28;;
6519;SDS011;3293;51.690;5.982;2023-09-19T08:06:32;13.93;;;3.63;;
6519;SDS011;3293;51.690;5.982;2023-09-19T08:11:32;16.40;;;3.70;;
6519;SDS011;3293;51.690;5.982;2023-09-19T08:16:32;14.32;;;3.50;;
6519;SDS011;3293;51.690;5.982;2023-09-19T08:21:32;8.70;;;3.15;;
6519;SDS011;3293;51.690;5.982;2023-09-19T08:26:32;9.52;;;3.67;;
6519;SDS011;3293;51.690;5.982;2023-09-19T08:31:32;12.30;;;3.22;;
6519;SDS011;3293;51.690;5.982;2023-09-19T08:36:33;11.25;;;3.22;;
6519;SDS011;3293;51.690;5.982;2023-09-19T08:41:34;11.95;;;3.67;;
6519;SDS011;3293;51.690;5.982;2023-09-19T08:46:34;11.30;;;3.38;;
6519;SDS011;3293;51.690;5.982;2023-09-19T08:51:44;10.05;;;3.42;;
6519;SDS011;3293;51.690;5.982;2023-09-19T08:56:45;7.40;;;3.45;;
6519;SDS011;3293;51.690;5.982;2023-09-19T09:01:47;11.82;;;3.65;;
6519;SDS011;3293;51.690;5.982;2023-09-19T09:06:47;10.73;;;3.45;;
6519;SDS011;3293;51.690;5.982;2023-09-19T09:11:52;11.48;;;2.67;;
6519;SDS011;3293;51.690;5.982;2023-09-19T09:16:52;11.93;;;4.05;;
6519;SDS011;3293;51.690;5.982;2023-09-19T09:22:10;12.00;;;3.53;;
6519;SDS011;3293;51.690;5.982;2023-09-19T09:27:11;8.23;;;3.35;;
6519;SDS011;3293;51.690;5.982;2023-09-19T09:32:22;8.13;;;2.90;;
6519;SDS011;3293;51.690;5.982;2023-09-19T09:37:24;12.13;;;3.88;;
6519;SDS011;3293;51.690;5.982;2023-09-19T09:42:29;10.57;;;2.92;;
6519;SDS011;3293;51.690;5.982;2023-09-19T09:47:44;9.07;;;2.90;;
6519;SDS011;3293;51.690;5.982;2023-09-19T09:52:49;8.88;;;3.42;;
6519;SDS011;3293;51.690;5.982;2023-09-19T09:57:52;11.25;;;3.40;;
6519;SDS011;3293;51.690;5.982;2023-09-19T10:03:32;12.10;;;3.80;;
6519;SDS011;3293;51.690;5.982;2023-09-19T10:08:36;8.57;;;3.08;;
6519;SDS011;3293;51.690;5.982;2023-09-19T10:13:37;11.07;;;3.47;;
6519;SDS011;3293;51.690;5.982;2023-09-19T10:18:43;10.52;;;3.30;;
6519;SDS011;3293;51.690;5.982;2023-09-19T10:23:44;10.40;;;3.53;;
6519;SDS011;3293;51.690;5.982;2023-09-19T10:28:46;12.15;;;3.20;;
6519;SDS011;3293;51.690;5.982;2023-09-19T10:33:49;8.27;;;3.05;;
6519;SDS011;3293;51.690;5.982;2023-09-19T10:38:51;7.13;;;2.75;;
6519;SDS011;3293;51.690;5.982;2023-09-19T10:43:54;8.60;;;3.40;;
6519;SDS011;3293;51.690;5.982;2023-09-19T10:48:58;9.57;;;3.20;;
6519;SDS011;3293;51.690;5.982;2023-09-19T10:54:12;10.38;;;2.92;;
6519;SDS011;3293;51.690;5.982;2023-09-19T10:59:16;8.77;;;3.10;;
6519;SDS011;3293;51.690;5.982;2023-09-19T11:04:21;9.77;;;3.20;;
6519;SDS011;3293;51.690;5.982;2023-09-19T11:14:48;5.88;;;2.42;;
6519;SDS011;3293;51.690;5.982;2023-09-19T11:30:30;8.98;;;2.75;;
6519;SDS011;3293;51.690;5.982;2023-09-19T11:51:51;10.10;;;2.70;;
6519;SDS011;3293;51.690;5.982;2023-09-19T11:56:51;5.97;;;2.40;;
6519;SDS011;3293;51.690;5.982;2023-09-19T12:01:54;11.02;;;3.35;;
6519;SDS011;3293;51.690;5.982;2023-09-19T12:06:58;6.68;;;2.67;;
6519;SDS011;3293;51.690;5.982;2023-09-19T12:11:59;6.00;;;2.13;;
6519;SDS011;3293;51.690;5.982;2023-09-19T12:16:59;6.70;;;2.40;;
6519;SDS011;3293;51.690;5.982;2023-09-19T12:22:01;6.45;;;2.20;;
6519;SDS011;3293;51.690;5.982;2023-09-19T12:27:05;9.77;;;2.50;;
6519;SDS011;3293;51.690;5.982;2023-09-19T12:32:06;6.95;;;2.58;;
6519;SDS011;3293;51.690;5.982;2023-09-19T12:42:23;7.50;;;2.33;;
6519;SDS011;3293;51.690;5.982;2023-09-19T12:47:27;6.88;;;2.20;;
6519;SDS011;3293;51.690;5.982;2023-09-19T12:52:34;5.22;;;2.58;;
6519;SDS011;3293;51.690;5.982;2023-09-19T12:57:37;7.57;;;2.15;;
6519;SDS011;3293;51.690;5.982;2023-09-19T13:02:43;5.55;;;2.70;;
6519;SDS011;3293;51.690;5.982;2023-09-19T13:08:18;3.67;;;1.73;;
6519;SDS011;3293;51.690;5.982;2023-09-19T13:13:22;6.25;;;1.67;;
6519;SDS011;3293;51.690;5.982;2023-09-19T13:18:27;3.58;;;1.50;;
6519;SDS011;3293;51.690;5.982;2023-09-19T13:23:29;7.70;;;1.65;;
6519;SDS011;3293;51.690;5.982;2023-09-19T13:28:30;6.40;;;1.77;;
6519;SDS011;3293;51.690;5.982;2023-09-19T13:33:30;4.57;;;1.70;;
6519;SDS011;3293;51.690;5.982;2023-09-19T13:38:30;3.92;;;1.80;;
6519;SDS011;3293;51.690;5.982;2023-09-19T13:43:29;4.75;;;1.70;;
6519;SDS011;3293;51.690;5.982;2023-09-19T13:48:29;3.80;;;1.63;;
6519;SDS011;3293;51.690;5.982;2023-09-19T13:53:29;6.32;;;1.80;;
6519;SDS011;3293;51.690;5.982;2023-09-19T13:58:30;3.42;;;1.63;;
6519;SDS011;3293;51.690;5.982;2023-09-19T14:03:31;2.33;;;1.50;;
6519;SDS011;3293;51.690;5.982;2023-09-19T14:08:31;4.10;;;1.42;;
6519;SDS011;3293;51.690;5.982;2023-09-19T14:13:33;4.13;;;2.35;;
6519;SDS011;3293;51.690;5.982;2023-09-19T14:18:34;5.78;;;1.65;;
6519;SDS011;3293;51.690;5.982;2023-09-19T14:23:35;3.83;;;1.33;;
6519;SDS011;3293;51.690;5.982;2023-09-19T14:28:35;2.97;;;1.60;;
6519;SDS011;3293;51.690;5.982;2023-09-19T14:33:35;3.10;;;1.58;;
6519;SDS011;3293;51.690;5.982;2023-09-19T14:38:36;4.05;;;1.70;;
6519;SDS011;3293;51.690;5.982;2023-09-19T14:43:36;4.05;;;1.48;;
6519;SDS011;3293;51.690;5.982;2023-09-19T14:48:36;5.68;;;2.00;;
6519;SDS011;3293;51.690;5.982;2023-09-19T14:53:37;2.72;;;1.65;;
6519;SDS011;3293;51.690;5.982;2023-09-19T14:58:37;4.20;;;1.70;;
6519;SDS011;3293;51.690;5.982;2023-09-19T15:03:41;5.72;;;2.42;;
6519;SDS011;3293;51.690;5.982;2023-09-19T15:08:46;3.55;;;1.40;;
6519;SDS011;3293;51.690;5.982;2023-09-19T15:13:50;3.88;;;1.88;;
6519;SDS011;3293;51.690;5.982;2023-09-19T15:18:53;3.65;;;1.83;;
6519;SDS011;3293;51.690;5.982;2023-09-19T15:23:54;5.63;;;1.90;;
6519;SDS011;3293;51.690;5.982;2023-09-19T15:28:55;3.65;;;1.80;;
6519;SDS011;3293;51.690;5.982;2023-09-19T15:33:55;3.15;;;1.75;;
6519;SDS011;3293;51.690;5.982;2023-09-19T15:38:55;4.18;;;1.80;;
6519;SDS011;3293;51.690;5.982;2023-09-19T15:44:00;4.07;;;1.75;;
6519;SDS011;3293;51.690;5.982;2023-09-19T15:49:02;3.95;;;1.90;;
6519;SDS011;3293;51.690;5.982;2023-09-19T15:54:13;6.78;;;1.83;;
6519;SDS011;3293;51.690;5.982;2023-09-19T15:59:14;5.80;;;1.75;;
6519;SDS011;3293;51.690;5.982;2023-09-19T16:04:18;6.65;;;1.80;;
6519;SDS011;3293;51.690;5.982;2023-09-19T16:09:18;2.97;;;1.67;;
6519;SDS011;3293;51.690;5.982;2023-09-19T16:14:18;4.70;;;2.00;;
6519;SDS011;3293;51.690;5.982;2023-09-19T16:19:18;5.50;;;2.22;;
6519;SDS011;3293;51.690;5.982;2023-09-19T16:24:18;4.35;;;1.95;;
6519;SDS011;3293;51.690;5.982;2023-09-19T16:29:18;4.93;;;1.70;;
6519;SDS011;3293;51.690;5.982;2023-09-19T16:34:21;4.57;;;1.83;;
6519;SDS011;3293;51.690;5.982;2023-09-19T16:39:21;4.22;;;2.05;;
6519;SDS011;3293;51.690;5.982;2023-09-19T16:44:22;4.05;;;2.08;;
6519;SDS011;3293;51.690;5.982;2023-09-19T16:49:21;3.58;;;1.73;;
6519;SDS011;3293;51.690;5.982;2023-09-19T16:54:21;5.28;;;2.00;;
6519;SDS011;3293;51.690;5.982;2023-09-19T16:59:22;7.80;;;2.42;;
6519;SDS011;3293;51.690;5.982;2023-09-19T17:04:23;2.70;;;1.60;;
6519;SDS011;3293;51.690;5.982;2023-09-19T17:09:23;2.15;;;1.42;;
6519;SDS011;3293;51.690;5.982;2023-09-19T17:14:23;4.50;;;2.10;;
6519;SDS011;3293;51.690;5.982;2023-09-19T17:19:23;8.50;;;2.65;;
6519;SDS011;3293;51.690;5.982;2023-09-19T17:24:23;6.35;;;1.70;;
6519;SDS011;3293;51.690;5.982;2023-09-19T17:29:23;6.20;;;2.80;;
6519;SDS011;3293;51.690;5.982;2023-09-19T17:34:23;4.72;;;1.92;;
6519;SDS011;3293;51.690;5.982;2023-09-19T17:39:23;5.72;;;2.35;;
6519;SDS011;3293;51.690;5.982;2023-09-19T17:44:23;6.15;;;2.13;;
6519;SDS011;3293;51.690;5.982;2023-09-19T17:49:24;3.97;;;2.08;;
6519;SDS011;3293;51.690;5.982;2023-09-19T17:54:24;5.32;;;2.70;;
6519;SDS011;3293;51.690;5.982;2023-09-19T17:59:24;3.90;;;2.33;;
6519;SDS011;3293;51.690;5.982;2023-09-19T18:04:24;6.35;;;2.28;;
6519;SDS011;3293;51.690;5.982;2023-09-19T18:09:25;6.10;;;2.10;;
6519;SDS011;3293;51.690;5.982;2023-09-19T18:14:25;7.15;;;2.55;;
6519;SDS011;3293;51.690;5.982;2023-09-19T18:19:25;4.88;;;2.53;;
6519;SDS011;3293;51.690;5.982;2023-09-19T18:24:27;3.85;;;1.90;;
6519;SDS011;3293;51.690;5.982;2023-09-19T18:29:27;7.00;;;2.33;;
6519;SDS011;3293;51.690;5.982;2023-09-19T18:34:26;5.32;;;2.28;;
6519;SDS011;3293;51.690;5.982;2023-09-19T18:39:27;4.07;;;2.10;;
6519;SDS011;3293;51.690;5.982;2023-09-19T18:44:29;6.05;;;2.40;;
6519;SDS011;3293;51.690;5.982;2023-09-19T18:49:29;5.65;;;2.28;;
6519;SDS011;3293;51.690;5.982;2023-09-19T18:54:29;4.22;;;2.33;;
6519;SDS011;3293;51.690;5.982;2023-09-19T18:59:29;5.35;;;2.40;;
6519;SDS011;3293;51.690;5.982;2023-09-19T19:04:29;5.25;;;2.53;;
6519;SDS011;3293;51.690;5.982;2023-09-19T19:09:29;8.30;;;2.33;;
6519;SDS011;3293;51.690;5.982;2023-09-19T19:14:30;5.45;;;2.25;;
6519;SDS011;3293;51.690;5.982;2023-09-19T19:19:31;3.60;;;1.85;;
6519;SDS011;3293;51.690;5.982;2023-09-19T19:24:31;6.75;;;2.05;;
6519;SDS011;3293;51.690;5.982;2023-09-19T19:29:32;4.85;;;2.20;;
6519;SDS011;3293;51.690;5.982;2023-09-19T19:34:34;6.75;;;2.40;;
6519;SDS011;3293;51.690;5.982;2023-09-19T19:39:35;6.00;;;2.22;;
6519;SDS011;3293;51.690;5.982;2023-09-19T19:44:35;4.85;;;2.25;;
6519;SDS011;3293;51.690;5.982;2023-09-19T19:49:35;5.75;;;2.13;;
6519;SDS011;3293;51.690;5.982;2023-09-19T19:54:35;6.40;;;2.30;;
6519;SDS011;3293;51.690;5.982;2023-09-19T19:59:36;4.97;;;2.17;;
6519;SDS011;3293;51.690;5.982;2023-09-19T20:04:36;8.43;;;2.40;;
6519;SDS011;3293;51.690;5.982;2023-09-19T20:09:37;6.35;;;2.30;;
6519;SDS011;3293;51.690;5.982;2023-09-19T20:14:38;6.70;;;2.20;;
6519;SDS011;3293;51.690;5.982;2023-09-19T20:19:38;5.57;;;2.13;;
6519;SDS011;3293;51.690;5.982;2023-09-19T20:24:38;5.78;;;2.28;;
6519;SDS011;3293;51.690;5.982;2023-09-19T20:29:38;5.88;;;2.30;;
6519;SDS011;3293;51.690;5.982;2023-09-19T20:34:39;4.25;;;2.50;;
6519;SDS011;3293;51.690;5.982;2023-09-19T20:39:40;6.95;;;2.42;;
6519;SDS011;3293;51.690;5.982;2023-09-19T20:44:40;7.40;;;2.45;;
6519;SDS011;3293;51.690;5.982;2023-09-19T20:49:40;6.43;;;2.30;;
6519;SDS011;3293;51.690;5.982;2023-09-19T20:54:40;6.05;;;2.67;;
6519;SDS011;3293;51.690;5.982;2023-09-19T20:59:46;5.65;;;2.30;;
6519;SDS011;3293;51.690;5.982;2023-09-19T21:04:46;4.25;;;2.10;;
6519;SDS011;3293;51.690;5.982;2023-09-19T21:09:47;7.05;;;2.55;;
6519;SDS011;3293;51.690;5.982;2023-09-19T21:14:47;4.10;;;2.35;;
6519;SDS011;3293;51.690;5.982;2023-09-19T21:19:48;6.50;;;2.63;;
6519;SDS011;3293;51.690;5.982;2023-09-19T21:24:48;4.05;;;2.38;;
6519;SDS011;3293;51.690;5.982;2023-09-19T21:29:51;4.47;;;2.45;;
6519;SDS011;3293;51.690;5.982;2023-09-19T21:34:51;6.20;;;2.67;;
6519;SDS011;3293;51.690;5.982;2023-09-19T21:39:51;5.15;;;2.30;;
6519;SDS011;3293;51.690;5.982;2023-09-19T21:44:53;5.63;;;2.50;;
6519;SDS011;3293;51.690;5.982;2023-09-19T21:49:53;6.00;;;2.58;;
6519;SDS011;3293;51.690;5.982;2023-09-19T21:54:54;4.85;;;3.33;;
6519;SDS011;3293;51.690;5.982;2023-09-19T21:59:54;6.60;;;2.47;;
6519;SDS011;3293;51.690;5.982;2023-09-19T22:04:55;5.95;;;2.53;;
6519;SDS011;3293;51.690;5.982;2023-09-19T22:09:55;6.15;;;2.63;;
6519;SDS011;3293;51.690;5.982;2023-09-19T22:14:55;6.72;;;2.50;;
6519;SDS011;3293;51.690;5.982;2023-09-19T22:19:55;8.45;;;2.38;;
6519;SDS011;3293;51.690;5.982;2023-09-19T22:24:56;3.53;;;2.40;;
6519;SDS011;3293;51.690;5.982;2023-09-19T22:29:56;5.03;;;2.50;;
6519;SDS011;3293;51.690;5.982;2023-09-19T22:34:58;5.30;;;2.20;;
6519;SDS011;3293;51.690;5.982;2023-09-19T22:40:00;8.27;;;2.50;;
6519;SDS011;3293;51.690;5.982;2023-09-19T22:45:03;10.25;;;2.40;;
6519;SDS011;3293;51.690;5.982;2023-09-19T22:50:11;4.75;;;2.58;;
6519;SDS011;3293;51.690;5.982;2023-09-19T22:55:12;8.50;;;2.50;;
6519;SDS011;3293;51.690;5.982;2023-09-19T23:00:23;6.68;;;2.65;;
6519;SDS011;3293;51.690;5.982;2023-09-19T23:05:33;5.20;;;2.38;;
6519;SDS011;3293;51.690;5.982;2023-09-19T23:10:47;6.43;;;2.75;;
6519;SDS011;3293;51.690;5.982;2023-09-19T23:15:51;5.75;;;2.70;;
6519;SDS011;3293;51.690;5.982;2023-09-19T23:20:55;8.93;;;2.90;;
6519;SDS011;3293;51.690;5.982;2023-09-19T23:26:04;5.30;;;2.50;;
6519;SDS011;3293;51.690;5.982;2023-09-19T23:31:05;6.13;;;2.67;;
6519;SDS011;3293;51.690;5.982;2023-09-19T23:36:05;7.75;;;3.00;;
6519;SDS011;3293;51.690;5.982;2023-09-19T23:41:08;7.15;;;2.78;;
6519;SDS011;3293;51.690;5.982;2023-09-19T23:46:19;9.20;;;3.20;;
6519;SDS011;3293;51.690;5.982;2023-09-19T23:51:20;7.68;;;2.78;;
6519;SDS011;3293;51.690;5.982;2023-09-19T23:56:22;5.13;;;3.40;;
